sensor_id;sensor_type;location;lat;lon;timestamp;P1;durP1;ratioP1;P2;durP2;ratioP2
59271;SDS011;45043;51.068;7.026;2023-06-10T00:01:12;10.10;;;7.07;;
59271;SDS011;45043;51.068;7.026;2023-06-10T00:04:13;7.30;;;6.60;;
59271;SDS011;45043;51.068;7.026;2023-06-10T00:07:14;7.57;;;6.97;;
59271;SDS011;45043;51.068;7.026;2023-06-10T00:10:16;8.03;;;7.23;;
59271;SDS011;45043;51.068;7.026;2023-06-10T00:13:16;8.07;;;7.37;;
59271;SDS011;45043;51.068;7.026;2023-06-10T00:16:17;8.27;;;7.33;;
59271;SDS011;45043;51.068;7.026;2023-06-10T00:19:18;8.07;;;6.80;;
59271;SDS011;45043;51.068;7.026;2023-06-10T00:22:19;7.53;;;6.93;;
59271;SDS011;45043;51.068;7.026;2023-06-10T00:25:19;7.97;;;7.27;;
59271;SDS011;45043;51.068;7.026;2023-06-10T00:28:19;7.50;;;6.80;;
59271;SDS011;45043;51.068;7.026;2023-06-10T00:31:20;7.40;;;6.80;;
59271;SDS011;45043;51.068;7.026;2023-06-10T00:34:20;7.57;;;6.97;;
59271;SDS011;45043;51.068;7.026;2023-06-10T00:37:21;7.17;;;6.57;;
59271;SDS011;45043;51.068;7.026;2023-06-10T00:40:22;7.50;;;6.80;;
59271;SDS011;45043;51.068;7.026;2023-06-10T00:43:22;7.50;;;6.90;;
59271;SDS011;45043;51.068;7.026;2023-06-10T00:46:23;8.27;;;6.90;;
59271;SDS011;45043;51.068;7.026;2023-06-10T00:49:25;7.77;;;6.87;;
59271;SDS011;45043;51.068;7.026;2023-06-10T00:52:27;7.13;;;6.40;;
59271;SDS011;45043;51.068;7.026;2023-06-10T00:55:29;8.77;;;6.97;;
59271;SDS011;45043;51.068;7.026;2023-06-10T00:58:31;7.93;;;7.13;;
59271;SDS011;45043;51.068;7.026;2023-06-10T01:01:32;8.10;;;6.90;;
59271;SDS011;45043;51.068;7.026;2023-06-10T01:04:36;7.40;;;6.80;;
59271;SDS011;45043;51.068;7.026;2023-06-10T01:07:38;8.20;;;7.40;;
59271;SDS011;45043;51.068;7.026;2023-06-10T01:10:50;9.87;;;7.43;;
59271;SDS011;45043;51.068;7.026;2023-06-10T01:13:55;7.90;;;7.10;;
59271;SDS011;45043;51.068;7.026;2023-06-10T01:16:58;8.13;;;6.87;;
59271;SDS011;45043;51.068;7.026;2023-06-10T01:20:00;7.27;;;6.67;;
59271;SDS011;45043;51.068;7.026;2023-06-10T01:23:03;7.07;;;6.47;;
59271;SDS011;45043;51.068;7.026;2023-06-10T01:26:05;7.70;;;7.00;;
59271;SDS011;45043;51.068;7.026;2023-06-10T01:29:11;8.00;;;6.87;;
59271;SDS011;45043;51.068;7.026;2023-06-10T01:32:24;8.27;;;7.47;;
59271;SDS011;45043;51.068;7.026;2023-06-10T01:35:29;7.53;;;6.87;;
59271;SDS011;45043;51.068;7.026;2023-06-10T01:38:31;7.03;;;6.43;;
59271;SDS011;45043;51.068;7.026;2023-06-10T01:41:36;7.60;;;6.73;;
59271;SDS011;45043;51.068;7.026;2023-06-10T01:44:41;7.73;;;7.03;;
59271;SDS011;45043;51.068;7.026;2023-06-10T01:47:42;6.93;;;6.33;;
59271;SDS011;45043;51.068;7.026;2023-06-10T01:50:42;8.30;;;6.50;;
59271;SDS011;45043;51.068;7.026;2023-06-10T01:53:44;7.57;;;6.77;;
59271;SDS011;45043;51.068;7.026;2023-06-10T01:56:44;8.03;;;7.30;;
59271;SDS011;45043;51.068;7.026;2023-06-10T01:59:45;7.97;;;6.50;;
59271;SDS011;45043;51.068;7.026;2023-06-10T02:02:46;8.07;;;7.37;;
59271;SDS011;45043;51.068;7.026;2023-06-10T02:05:46;7.90;;;7.10;;
59271;SDS011;45043;51.068;7.026;2023-06-10T02:08:49;7.90;;;7.00;;
59271;SDS011;45043;51.068;7.026;2023-06-10T02:11:50;8.00;;;7.20;;
59271;SDS011;45043;51.068;7.026;2023-06-10T02:14:51;8.77;;;7.67;;
59271;SDS011;45043;51.068;7.026;2023-06-10T02:17:51;8.40;;;7.53;;
59271;SDS011;45043;51.068;7.026;2023-06-10T02:20:52;7.97;;;7.37;;
59271;SDS011;45043;51.068;7.026;2023-06-10T02:23:53;7.57;;;6.97;;
59271;SDS011;45043;51.068;7.026;2023-06-10T02:26:53;9.27;;;7.63;;
59271;SDS011;45043;51.068;7.026;2023-06-10T02:29:53;7.77;;;7.17;;
59271;SDS011;45043;51.068;7.026;2023-06-10T02:32:55;9.10;;;8.00;;
59271;SDS011;45043;51.068;7.026;2023-06-10T02:35:58;7.93;;;7.20;;
59271;SDS011;45043;51.068;7.026;2023-06-10T02:39:01;7.60;;;6.90;;
59271;SDS011;45043;51.068;7.026;2023-06-10T02:42:03;7.87;;;7.17;;
59271;SDS011;45043;51.068;7.026;2023-06-10T02:45:04;7.83;;;7.13;;
59271;SDS011;45043;51.068;7.026;2023-06-10T02:48:13;8.07;;;7.27;;
59271;SDS011;45043;51.068;7.026;2023-06-10T02:51:14;8.93;;;8.07;;
59271;SDS011;45043;51.068;7.026;2023-06-10T02:54:19;8.00;;;7.30;;
59271;SDS011;45043;51.068;7.026;2023-06-10T02:57:20;8.10;;;7.40;;
59271;SDS011;45043;51.068;7.026;2023-06-10T03:00:21;8.13;;;7.43;;
59271;SDS011;45043;51.068;7.026;2023-06-10T03:03:23;8.50;;;7.67;;
59271;SDS011;45043;51.068;7.026;2023-06-10T03:06:36;7.70;;;7.00;;
59271;SDS011;45043;51.068;7.026;2023-06-10T03:09:51;8.10;;;7.30;;
59271;SDS011;45043;51.068;7.026;2023-06-10T03:12:51;8.17;;;6.90;;
59271;SDS011;45043;51.068;7.026;2023-06-10T03:15:52;8.07;;;6.67;;
59271;SDS011;45043;51.068;7.026;2023-06-10T03:18:56;9.30;;;7.20;;
59271;SDS011;45043;51.068;7.026;2023-06-10T03:22:16;7.80;;;7.10;;
59271;SDS011;45043;51.068;7.026;2023-06-10T03:25:32;7.70;;;7.00;;
59271;SDS011;45043;51.068;7.026;2023-06-10T03:28:33;8.10;;;7.30;;
59271;SDS011;45043;51.068;7.026;2023-06-10T03:31:34;7.43;;;6.73;;
59271;SDS011;45043;51.068;7.026;2023-06-10T03:34:39;8.37;;;7.07;;
59271;SDS011;45043;51.068;7.026;2023-06-10T03:37:40;7.63;;;6.93;;
59271;SDS011;45043;51.068;7.026;2023-06-10T03:40:41;7.40;;;6.70;;
59271;SDS011;45043;51.068;7.026;2023-06-10T03:43:42;7.80;;;7.00;;
59271;SDS011;45043;51.068;7.026;2023-06-10T03:46:45;7.33;;;6.70;;
59271;SDS011;45043;51.068;7.026;2023-06-10T03:49:47;7.80;;;7.20;;
59271;SDS011;45043;51.068;7.026;2023-06-10T03:52:48;7.90;;;7.10;;
59271;SDS011;45043;51.068;7.026;2023-06-10T03:55:51;7.47;;;6.70;;
59271;SDS011;45043;51.068;7.026;2023-06-10T03:58:55;7.57;;;6.87;;
59271;SDS011;45043;51.068;7.026;2023-06-10T04:01:56;7.73;;;7.00;;
59271;SDS011;45043;51.068;7.026;2023-06-10T04:04:57;7.70;;;6.90;;
59271;SDS011;45043;51.068;7.026;2023-06-10T04:07:57;10.10;;;7.20;;
59271;SDS011;45043;51.068;7.026;2023-06-10T04:10:57;8.40;;;7.17;;
59271;SDS011;45043;51.068;7.026;2023-06-10T04:13:58;7.90;;;6.97;;
59271;SDS011;45043;51.068;7.026;2023-06-10T04:17:00;8.63;;;7.90;;
59271;SDS011;45043;51.068;7.026;2023-06-10T04:20:01;8.17;;;7.37;;
59271;SDS011;45043;51.068;7.026;2023-06-10T04:23:02;8.23;;;6.63;;
59271;SDS011;45043;51.068;7.026;2023-06-10T04:26:04;8.03;;;7.30;;
59271;SDS011;45043;51.068;7.026;2023-06-10T04:29:06;7.87;;;7.07;;
59271;SDS011;45043;51.068;7.026;2023-06-10T04:32:06;7.50;;;6.80;;
59271;SDS011;45043;51.068;7.026;2023-06-10T04:35:07;8.40;;;7.03;;
59271;SDS011;45043;51.068;7.026;2023-06-10T04:38:08;7.80;;;7.00;;
59271;SDS011;45043;51.068;7.026;2023-06-10T04:41:09;10.10;;;7.43;;
59271;SDS011;45043;51.068;7.026;2023-06-10T04:44:10;7.33;;;6.63;;
59271;SDS011;45043;51.068;7.026;2023-06-10T04:47:11;7.50;;;6.90;;
59271;SDS011;45043;51.068;7.026;2023-06-10T04:50:12;7.60;;;6.80;;
59271;SDS011;45043;51.068;7.026;2023-06-10T04:53:13;9.53;;;7.33;;
59271;SDS011;45043;51.068;7.026;2023-06-10T04:56:18;7.90;;;7.20;;
59271;SDS011;45043;51.068;7.026;2023-06-10T04:59:20;8.00;;;7.30;;
59271;SDS011;45043;51.068;7.026;2023-06-10T05:02:20;8.10;;;7.40;;
59271;SDS011;45043;51.068;7.026;2023-06-10T05:05:20;8.53;;;7.70;;
59271;SDS011;45043;51.068;7.026;2023-06-10T05:08:21;7.73;;;7.13;;
59271;SDS011;45043;51.068;7.026;2023-06-10T05:11:22;8.67;;;7.37;;
59271;SDS011;45043;51.068;7.026;2023-06-10T05:14:22;7.87;;;7.07;;
59271;SDS011;45043;51.068;7.026;2023-06-10T05:17:23;8.23;;;7.10;;
59271;SDS011;45043;51.068;7.026;2023-06-10T05:20:25;8.03;;;7.00;;
59271;SDS011;45043;51.068;7.026;2023-06-10T05:23:26;6.93;;;6.33;;
59271;SDS011;45043;51.068;7.026;2023-06-10T05:26:26;7.37;;;6.50;;
59271;SDS011;45043;51.068;7.026;2023-06-10T05:29:26;8.10;;;7.30;;
59271;SDS011;45043;51.068;7.026;2023-06-10T05:32:27;7.57;;;6.83;;
59271;SDS011;45043;51.068;7.026;2023-06-10T05:35:27;7.53;;;6.83;;
59271;SDS011;45043;51.068;7.026;2023-06-10T05:38:28;8.43;;;7.07;;
59271;SDS011;45043;51.068;7.026;2023-06-10T05:41:28;7.10;;;6.40;;
59271;SDS011;45043;51.068;7.026;2023-06-10T05:44:29;7.93;;;7.27;;
59271;SDS011;45043;51.068;7.026;2023-06-10T05:47:29;8.20;;;7.10;;
59271;SDS011;45043;51.068;7.026;2023-06-10T05:50:29;7.47;;;6.77;;
59271;SDS011;45043;51.068;7.026;2023-06-10T05:53:31;7.67;;;6.87;;
59271;SDS011;45043;51.068;7.026;2023-06-10T05:56:32;8.20;;;7.40;;
59271;SDS011;45043;51.068;7.026;2023-06-10T05:59:32;7.87;;;7.17;;
59271;SDS011;45043;51.068;7.026;2023-06-10T06:02:32;8.33;;;6.80;;
59271;SDS011;45043;51.068;7.026;2023-06-10T06:05:33;7.53;;;6.83;;
59271;SDS011;45043;51.068;7.026;2023-06-10T06:08:35;7.93;;;7.23;;
59271;SDS011;45043;51.068;7.026;2023-06-10T06:11:35;7.53;;;6.90;;
59271;SDS011;45043;51.068;7.026;2023-06-10T06:14:39;8.00;;;7.07;;
59271;SDS011;45043;51.068;7.026;2023-06-10T06:17:40;7.50;;;6.80;;
59271;SDS011;45043;51.068;7.026;2023-06-10T06:20:40;8.30;;;7.50;;
59271;SDS011;45043;51.068;7.026;2023-06-10T06:23:41;7.73;;;7.00;;
59271;SDS011;45043;51.068;7.026;2023-06-10T06:26:41;8.03;;;7.33;;
59271;SDS011;45043;51.068;7.026;2023-06-10T06:29:42;7.60;;;6.90;;
59271;SDS011;45043;51.068;7.026;2023-06-10T06:32:42;7.50;;;6.90;;
59271;SDS011;45043;51.068;7.026;2023-06-10T06:35:42;7.27;;;6.50;;
59271;SDS011;45043;51.068;7.026;2023-06-10T06:38:47;9.27;;;6.53;;
59271;SDS011;45043;51.068;7.026;2023-06-10T06:41:48;7.50;;;6.80;;
59271;SDS011;45043;51.068;7.026;2023-06-10T06:44:48;8.03;;;6.73;;
59271;SDS011;45043;51.068;7.026;2023-06-10T06:47:48;7.03;;;6.23;;
59271;SDS011;45043;51.068;7.026;2023-06-10T06:50:49;7.20;;;6.57;;
59271;SDS011;45043;51.068;7.026;2023-06-10T06:53:49;7.30;;;6.63;;
59271;SDS011;45043;51.068;7.026;2023-06-10T06:56:51;7.87;;;6.93;;
59271;SDS011;45043;51.068;7.026;2023-06-10T06:59:51;7.53;;;6.83;;
59271;SDS011;45043;51.068;7.026;2023-06-10T07:02:52;7.90;;;7.10;;
59271;SDS011;45043;51.068;7.026;2023-06-10T07:05:52;7.47;;;6.73;;
59271;SDS011;45043;51.068;7.026;2023-06-10T07:08:53;7.73;;;7.07;;
59271;SDS011;45043;51.068;7.026;2023-06-10T07:11:53;6.57;;;5.97;;
59271;SDS011;45043;51.068;7.026;2023-06-10T07:14:53;6.80;;;6.10;;
59271;SDS011;45043;51.068;7.026;2023-06-10T07:17:54;6.90;;;6.20;;
59271;SDS011;45043;51.068;7.026;2023-06-10T07:20:55;6.93;;;6.30;;
59271;SDS011;45043;51.068;7.026;2023-06-10T07:23:55;9.47;;;6.43;;
59271;SDS011;45043;51.068;7.026;2023-06-10T07:26:56;7.57;;;6.87;;
59271;SDS011;45043;51.068;7.026;2023-06-10T07:29:57;6.47;;;5.87;;
59271;SDS011;45043;51.068;7.026;2023-06-10T07:32:57;7.73;;;6.33;;
59271;SDS011;45043;51.068;7.026;2023-06-10T07:35:57;7.00;;;6.40;;
59271;SDS011;45043;51.068;7.026;2023-06-10T07:38:58;7.13;;;6.53;;
59271;SDS011;45043;51.068;7.026;2023-06-10T07:41:58;7.33;;;6.60;;
59271;SDS011;45043;51.068;7.026;2023-06-10T07:45:00;9.30;;;6.50;;
59271;SDS011;45043;51.068;7.026;2023-06-10T07:48:00;7.50;;;6.30;;
59271;SDS011;45043;51.068;7.026;2023-06-10T07:51:01;9.67;;;6.43;;
59271;SDS011;45043;51.068;7.026;2023-06-10T07:54:01;7.73;;;6.87;;
59271;SDS011;45043;51.068;7.026;2023-06-10T07:57:01;7.23;;;6.53;;
59271;SDS011;45043;51.068;7.026;2023-06-10T08:00:02;7.60;;;6.37;;
59271;SDS011;45043;51.068;7.026;2023-06-10T08:03:12;6.67;;;6.17;;
59271;SDS011;45043;51.068;7.026;2023-06-10T08:06:13;7.30;;;6.67;;
59271;SDS011;45043;51.068;7.026;2023-06-10T08:09:14;8.47;;;6.90;;
59271;SDS011;45043;51.068;7.026;2023-06-10T08:12:14;8.37;;;7.10;;
59271;SDS011;45043;51.068;7.026;2023-06-10T08:15:18;6.87;;;6.27;;
59271;SDS011;45043;51.068;7.026;2023-06-10T08:18:18;9.83;;;7.33;;
59271;SDS011;45043;51.068;7.026;2023-06-10T08:21:18;8.30;;;6.70;;
59271;SDS011;45043;51.068;7.026;2023-06-10T08:24:19;7.80;;;6.53;;
59271;SDS011;45043;51.068;7.026;2023-06-10T08:27:23;7.30;;;6.70;;
59271;SDS011;45043;51.068;7.026;2023-06-10T08:30:23;7.40;;;6.67;;
59271;SDS011;45043;51.068;7.026;2023-06-10T08:33:23;8.87;;;7.37;;
59271;SDS011;45043;51.068;7.026;2023-06-10T08:36:24;7.70;;;6.90;;
59271;SDS011;45043;51.068;7.026;2023-06-10T08:39:24;7.60;;;6.23;;
59271;SDS011;45043;51.068;7.026;2023-06-10T08:42:28;8.00;;;6.47;;
59271;SDS011;45043;51.068;7.026;2023-06-10T08:45:37;7.33;;;6.70;;
59271;SDS011;45043;51.068;7.026;2023-06-10T08:48:39;8.37;;;6.33;;
59271;SDS011;45043;51.068;7.026;2023-06-10T08:51:43;9.07;;;6.87;;
59271;SDS011;45043;51.068;7.026;2023-06-10T08:58:01;7.10;;;6.50;;
59271;SDS011;45043;51.068;7.026;2023-06-10T09:01:02;9.43;;;6.63;;
59271;SDS011;45043;51.068;7.026;2023-06-10T09:04:02;7.10;;;6.50;;
59271;SDS011;45043;51.068;7.026;2023-06-10T09:07:03;8.40;;;7.13;;
59271;SDS011;45043;51.068;7.026;2023-06-10T09:10:04;7.23;;;6.60;;
59271;SDS011;45043;51.068;7.026;2023-06-10T09:13:07;9.50;;;7.47;;
59271;SDS011;45043;51.068;7.026;2023-06-10T09:16:07;9.03;;;6.83;;
59271;SDS011;45043;51.068;7.026;2023-06-10T09:19:08;7.40;;;6.70;;
59271;SDS011;45043;51.068;7.026;2023-06-10T09:22:08;8.00;;;6.70;;
59271;SDS011;45043;51.068;7.026;2023-06-10T09:25:12;7.17;;;6.53;;
59271;SDS011;45043;51.068;7.026;2023-06-10T09:28:16;7.53;;;6.83;;
59271;SDS011;45043;51.068;7.026;2023-06-10T09:31:17;8.60;;;6.80;;
59271;SDS011;45043;51.068;7.026;2023-06-10T09:34:24;7.77;;;7.00;;
59271;SDS011;45043;51.068;7.026;2023-06-10T09:37:26;8.03;;;7.23;;
59271;SDS011;45043;51.068;7.026;2023-06-10T09:40:26;8.00;;;6.90;;
59271;SDS011;45043;51.068;7.026;2023-06-10T09:43:38;8.63;;;5.70;;
59271;SDS011;45043;51.068;7.026;2023-06-10T09:46:49;7.50;;;6.80;;
59271;SDS011;45043;51.068;7.026;2023-06-10T09:49:50;7.00;;;6.40;;
59271;SDS011;45043;51.068;7.026;2023-06-10T09:52:53;8.07;;;7.07;;
59271;SDS011;45043;51.068;7.026;2023-06-10T09:55:53;10.67;;;6.70;;
59271;SDS011;45043;51.068;7.026;2023-06-10T09:58:54;7.43;;;6.43;;
59271;SDS011;45043;51.068;7.026;2023-06-10T10:01:55;8.40;;;6.70;;
59271;SDS011;45043;51.068;7.026;2023-06-10T10:05:02;7.47;;;6.40;;
59271;SDS011;45043;51.068;7.026;2023-06-10T10:08:04;8.07;;;6.90;;
59271;SDS011;45043;51.068;7.026;2023-06-10T10:11:05;7.07;;;6.47;;
59271;SDS011;45043;51.068;7.026;2023-06-10T10:14:05;7.83;;;6.50;;
59271;SDS011;45043;51.068;7.026;2023-06-10T10:17:10;7.27;;;6.40;;
59271;SDS011;45043;51.068;7.026;2023-06-10T10:20:12;8.13;;;6.70;;
59271;SDS011;45043;51.068;7.026;2023-06-10T10:23:16;7.40;;;6.33;;
59271;SDS011;45043;51.068;7.026;2023-06-10T10:26:21;6.63;;;5.97;;
59271;SDS011;45043;51.068;7.026;2023-06-10T10:29:30;6.40;;;5.80;;
59271;SDS011;45043;51.068;7.026;2023-06-10T10:32:34;6.80;;;6.30;;
59271;SDS011;45043;51.068;7.026;2023-06-10T10:35:38;7.63;;;6.50;;
59271;SDS011;45043;51.068;7.026;2023-06-10T10:38:39;6.35;;;5.60;;
59271;SDS011;45043;51.068;7.026;2023-06-10T10:41:41;7.00;;;6.30;;
59271;SDS011;45043;51.068;7.026;2023-06-10T10:44:42;10.10;;;6.83;;
59271;SDS011;45043;51.068;7.026;2023-06-10T10:47:44;6.82;;;6.18;;
59271;SDS011;45043;51.068;7.026;2023-06-10T10:50:55;7.05;;;5.95;;
59271;SDS011;45043;51.068;7.026;2023-06-10T10:54:12;8.50;;;7.30;;
59271;SDS011;45043;51.068;7.026;2023-06-10T11:00:24;7.65;;;6.85;;
59271;SDS011;45043;51.068;7.026;2023-06-10T11:03:29;8.13;;;7.43;;
59271;SDS011;45043;51.068;7.026;2023-06-10T11:06:32;7.13;;;6.47;;
59271;SDS011;45043;51.068;7.026;2023-06-10T11:09:32;7.72;;;6.43;;
59271;SDS011;45043;51.068;7.026;2023-06-10T11:12:54;6.95;;;6.32;;
59271;SDS011;45043;51.068;7.026;2023-06-10T11:15:57;8.90;;;6.15;;
59271;SDS011;45043;51.068;7.026;2023-06-10T11:18:58;8.27;;;6.22;;
59271;SDS011;45043;51.068;7.026;2023-06-10T11:22:01;6.90;;;5.15;;
59271;SDS011;45043;51.068;7.026;2023-06-10T11:25:16;6.78;;;6.18;;
59271;SDS011;45043;51.068;7.026;2023-06-10T11:28:19;7.20;;;6.60;;
59271;SDS011;45043;51.068;7.026;2023-06-10T11:31:20;7.35;;;6.75;;
59271;SDS011;45043;51.068;7.026;2023-06-10T11:34:21;7.53;;;6.80;;
59271;SDS011;45043;51.068;7.026;2023-06-10T11:37:25;8.73;;;6.60;;
59271;SDS011;45043;51.068;7.026;2023-06-10T11:40:25;6.85;;;6.25;;
59271;SDS011;45043;51.068;7.026;2023-06-10T11:43:26;6.65;;;6.15;;
59271;SDS011;45043;51.068;7.026;2023-06-10T11:46:26;8.65;;;6.25;;
59271;SDS011;45043;51.068;7.026;2023-06-10T11:49:27;7.95;;;6.70;;
59271;SDS011;45043;51.068;7.026;2023-06-10T11:52:31;7.45;;;6.55;;
59271;SDS011;45043;51.068;7.026;2023-06-10T11:55:40;8.10;;;6.63;;
59271;SDS011;45043;51.068;7.026;2023-06-10T11:58:52;9.82;;;7.10;;
59271;SDS011;45043;51.068;7.026;2023-06-10T12:02:14;7.93;;;6.63;;
59271;SDS011;45043;51.068;7.026;2023-06-10T12:05:15;7.38;;;6.70;;
59271;SDS011;45043;51.068;7.026;2023-06-10T12:08:15;9.90;;;7.30;;
59271;SDS011;45043;51.068;7.026;2023-06-10T12:11:16;7.50;;;6.38;;
59271;SDS011;45043;51.068;7.026;2023-06-10T12:14:48;7.13;;;6.47;;
59271;SDS011;45043;51.068;7.026;2023-06-10T12:17:55;6.60;;;5.65;;
59271;SDS011;45043;51.068;7.026;2023-06-10T12:20:55;9.00;;;6.50;;
59271;SDS011;45043;51.068;7.026;2023-06-10T12:23:59;7.75;;;6.03;;
59271;SDS011;45043;51.068;7.026;2023-06-10T12:27:00;7.82;;;6.50;;
59271;SDS011;45043;51.068;7.026;2023-06-10T12:30:02;7.22;;;6.63;;
59271;SDS011;45043;51.068;7.026;2023-06-10T12:33:04;8.70;;;6.60;;
59271;SDS011;45043;51.068;7.026;2023-06-10T12:36:19;7.05;;;6.45;;
59271;SDS011;45043;51.068;7.026;2023-06-10T12:39:20;7.07;;;6.20;;
59271;SDS011;45043;51.068;7.026;2023-06-10T12:42:21;7.93;;;6.93;;
59271;SDS011;45043;51.068;7.026;2023-06-10T12:46:07;7.65;;;6.88;;
59271;SDS011;45043;51.068;7.026;2023-06-10T12:48:50;7.88;;;6.97;;
59271;SDS011;45043;51.068;7.026;2023-06-10T12:51:52;8.23;;;7.05;;
59271;SDS011;45043;51.068;7.026;2023-06-10T12:54:53;7.15;;;6.55;;
59271;SDS011;45043;51.068;7.026;2023-06-10T12:57:54;7.05;;;6.30;;
59271;SDS011;45043;51.068;7.026;2023-06-10T13:00:56;6.82;;;6.22;;
59271;SDS011;45043;51.068;7.026;2023-06-10T13:03:57;6.95;;;6.20;;
59271;SDS011;45043;51.068;7.026;2023-06-10T13:06:57;9.30;;;6.00;;
59271;SDS011;45043;51.068;7.026;2023-06-10T13:09:59;9.32;;;5.78;;
59271;SDS011;45043;51.068;7.026;2023-06-10T13:12:59;7.40;;;6.15;;
59271;SDS011;45043;51.068;7.026;2023-06-10T13:16:00;7.43;;;6.18;;
59271;SDS011;45043;51.068;7.026;2023-06-10T13:19:02;7.82;;;6.40;;
59271;SDS011;45043;51.068;7.026;2023-06-10T13:22:05;6.38;;;5.78;;
59271;SDS011;45043;51.068;7.026;2023-06-10T13:25:05;6.63;;;6.03;;
59271;SDS011;45043;51.068;7.026;2023-06-10T13:28:09;6.43;;;5.82;;
59271;SDS011;45043;51.068;7.026;2023-06-10T13:31:09;6.07;;;5.47;;
59271;SDS011;45043;51.068;7.026;2023-06-10T13:34:10;5.80;;;5.30;;
59271;SDS011;45043;51.068;7.026;2023-06-10T13:37:11;6.70;;;5.32;;
59271;SDS011;45043;51.068;7.026;2023-06-10T13:40:12;6.53;;;5.53;;
59271;SDS011;45043;51.068;7.026;2023-06-10T13:43:13;6.85;;;5.10;;
59271;SDS011;45043;51.068;7.026;2023-06-10T13:46:13;6.35;;;5.50;;
59271;SDS011;45043;51.068;7.026;2023-06-10T13:49:14;6.07;;;5.50;;
59271;SDS011;45043;51.068;7.026;2023-06-10T13:52:14;6.38;;;5.60;;
59271;SDS011;45043;51.068;7.026;2023-06-10T13:55:14;6.68;;;5.18;;
59271;SDS011;45043;51.068;7.026;2023-06-10T13:58:16;5.88;;;5.22;;
59271;SDS011;45043;51.068;7.026;2023-06-10T14:01:17;6.25;;;5.13;;
59271;SDS011;45043;51.068;7.026;2023-06-10T14:04:17;6.03;;;4.97;;
59271;SDS011;45043;51.068;7.026;2023-06-10T14:07:17;5.70;;;5.10;;
59271;SDS011;45043;51.068;7.026;2023-06-10T14:10:18;5.93;;;5.38;;
59271;SDS011;45043;51.068;7.026;2023-06-10T14:13:18;5.85;;;5.20;;
59271;SDS011;45043;51.068;7.026;2023-06-10T14:16:19;6.00;;;5.03;;
59271;SDS011;45043;51.068;7.026;2023-06-10T14:19:19;6.05;;;5.47;;
59271;SDS011;45043;51.068;7.026;2023-06-10T14:22:20;5.30;;;4.88;;
59271;SDS011;45043;51.068;7.026;2023-06-10T14:25:20;8.45;;;5.05;;
59271;SDS011;45043;51.068;7.026;2023-06-10T14:28:20;5.05;;;4.65;;
59271;SDS011;45043;51.068;7.026;2023-06-10T14:31:21;5.43;;;4.93;;
59271;SDS011;45043;51.068;7.026;2023-06-10T14:34:21;5.85;;;5.28;;
59271;SDS011;45043;51.068;7.026;2023-06-10T14:37:23;5.43;;;4.93;;
59271;SDS011;45043;51.068;7.026;2023-06-10T14:40:24;7.70;;;5.20;;
59271;SDS011;45043;51.068;7.026;2023-06-10T14:43:26;5.95;;;5.28;;
59271;SDS011;45043;51.068;7.026;2023-06-10T14:46:26;5.95;;;4.80;;
59271;SDS011;45043;51.068;7.026;2023-06-10T14:49:27;6.50;;;5.10;;
59271;SDS011;45043;51.068;7.026;2023-06-10T14:52:27;7.70;;;4.68;;
59271;SDS011;45043;51.068;7.026;2023-06-10T14:55:28;5.50;;;4.90;;
59271;SDS011;45043;51.068;7.026;2023-06-10T14:58:28;5.82;;;5.00;;
59271;SDS011;45043;51.068;7.026;2023-06-10T15:01:28;9.20;;;8.40;;
59271;SDS011;45043;51.068;7.026;2023-06-10T15:04:29;11.40;;;10.30;;
59271;SDS011;45043;51.068;7.026;2023-06-10T15:07:29;5.65;;;5.05;;
59271;SDS011;45043;51.068;7.026;2023-06-10T15:10:30;5.78;;;5.22;;
59271;SDS011;45043;51.068;7.026;2023-06-10T15:13:30;6.53;;;5.00;;
59271;SDS011;45043;51.068;7.026;2023-06-10T15:16:30;5.15;;;4.72;;
59271;SDS011;45043;51.068;7.026;2023-06-10T15:19:31;5.97;;;5.00;;
59271;SDS011;45043;51.068;7.026;2023-06-10T15:22:31;7.03;;;5.18;;
59271;SDS011;45043;51.068;7.026;2023-06-10T15:25:32;5.40;;;4.82;;
59271;SDS011;45043;51.068;7.026;2023-06-10T15:28:32;6.53;;;4.85;;
59271;SDS011;45043;51.068;7.026;2023-06-10T15:31:32;5.60;;;5.05;;
59271;SDS011;45043;51.068;7.026;2023-06-10T15:34:33;5.53;;;5.03;;
59271;SDS011;45043;51.068;7.026;2023-06-10T15:37:33;5.35;;;4.65;;
59271;SDS011;45043;51.068;7.026;2023-06-10T15:40:34;5.05;;;4.40;;
59271;SDS011;45043;51.068;7.026;2023-06-10T15:43:35;6.88;;;4.65;;
59271;SDS011;45043;51.068;7.026;2023-06-10T15:46:35;5.57;;;4.60;;
59271;SDS011;45043;51.068;7.026;2023-06-10T15:49:36;4.93;;;4.45;;
59271;SDS011;45043;51.068;7.026;2023-06-10T15:52:36;4.72;;;4.30;;
59271;SDS011;45043;51.068;7.026;2023-06-10T15:55:37;6.18;;;4.32;;
59271;SDS011;45043;51.068;7.026;2023-06-10T15:58:37;5.25;;;4.75;;
59271;SDS011;45043;51.068;7.026;2023-06-10T16:01:37;5.00;;;4.57;;
59271;SDS011;45043;51.068;7.026;2023-06-10T16:04:38;5.10;;;4.30;;
59271;SDS011;45043;51.068;7.026;2023-06-10T16:07:39;5.05;;;4.63;;
59271;SDS011;45043;51.068;7.026;2023-06-10T16:10:40;5.40;;;4.90;;
59271;SDS011;45043;51.068;7.026;2023-06-10T16:13:41;5.18;;;4.70;;
59271;SDS011;45043;51.068;7.026;2023-06-10T16:16:41;4.38;;;4.07;;
59271;SDS011;45043;51.068;7.026;2023-06-10T16:19:42;4.93;;;4.53;;
59271;SDS011;45043;51.068;7.026;2023-06-10T16:22:42;6.88;;;4.28;;
59271;SDS011;45043;51.068;7.026;2023-06-10T16:25:42;4.65;;;4.25;;
59271;SDS011;45043;51.068;7.026;2023-06-10T16:28:43;5.03;;;4.10;;
59271;SDS011;45043;51.068;7.026;2023-06-10T16:31:43;4.97;;;4.22;;
59271;SDS011;45043;51.068;7.026;2023-06-10T16:34:44;7.03;;;4.45;;
59271;SDS011;45043;51.068;7.026;2023-06-10T16:37:44;4.65;;;4.18;;
59271;SDS011;45043;51.068;7.026;2023-06-10T16:40:45;5.22;;;4.72;;
59271;SDS011;45043;51.068;7.026;2023-06-10T16:43:45;5.05;;;4.38;;
59271;SDS011;45043;51.068;7.026;2023-06-10T16:46:45;5.80;;;5.40;;
59271;SDS011;45043;51.068;7.026;2023-06-10T16:49:46;6.35;;;5.70;;
59271;SDS011;45043;51.068;7.026;2023-06-10T16:52:46;6.90;;;6.30;;
59271;SDS011;45043;51.068;7.026;2023-06-10T16:55:47;6.75;;;5.97;;
59271;SDS011;45043;51.068;7.026;2023-06-10T16:58:47;8.18;;;6.18;;
59271;SDS011;45043;51.068;7.026;2023-06-10T17:01:48;6.60;;;6.03;;
59271;SDS011;45043;51.068;7.026;2023-06-10T17:04:48;7.35;;;6.00;;
59271;SDS011;45043;51.068;7.026;2023-06-10T17:07:49;6.72;;;5.55;;
59271;SDS011;45043;51.068;7.026;2023-06-10T17:10:50;6.75;;;6.18;;
59271;SDS011;45043;51.068;7.026;2023-06-10T17:13:50;6.00;;;5.50;;
59271;SDS011;45043;51.068;7.026;2023-06-10T17:16:51;6.30;;;5.70;;
59271;SDS011;45043;51.068;7.026;2023-06-10T17:19:51;6.57;;;5.68;;
59271;SDS011;45043;51.068;7.026;2023-06-10T17:22:52;6.78;;;5.90;;
59271;SDS011;45043;51.068;7.026;2023-06-10T17:25:52;7.90;;;6.13;;
59271;SDS011;45043;51.068;7.026;2023-06-10T17:28:52;5.93;;;5.32;;
59271;SDS011;45043;51.068;7.026;2023-06-10T17:31:53;6.07;;;5.38;;
59271;SDS011;45043;51.068;7.026;2023-06-10T17:34:53;6.65;;;5.70;;
59271;SDS011;45043;51.068;7.026;2023-06-10T17:37:54;6.30;;;5.70;;
59271;SDS011;45043;51.068;7.026;2023-06-10T17:40:54;5.68;;;5.18;;
59271;SDS011;45043;51.068;7.026;2023-06-10T17:43:56;23.95;;;22.08;;
59271;SDS011;45043;51.068;7.026;2023-06-10T17:46:56;26.17;;;23.98;;
59271;SDS011;45043;51.068;7.026;2023-06-10T17:49:57;20.48;;;18.67;;
59271;SDS011;45043;51.068;7.026;2023-06-10T17:52:57;23.05;;;21.08;;
59271;SDS011;45043;51.068;7.026;2023-06-10T17:55:57;19.00;;;17.50;;
59271;SDS011;45043;51.068;7.026;2023-06-10T17:58:58;17.85;;;16.48;;
59271;SDS011;45043;51.068;7.026;2023-06-10T18:01:58;17.33;;;15.93;;
59271;SDS011;45043;51.068;7.026;2023-06-10T18:04:58;16.08;;;14.68;;
59271;SDS011;45043;51.068;7.026;2023-06-10T18:07:59;15.57;;;14.23;;
59271;SDS011;45043;51.068;7.026;2023-06-10T18:10:59;13.13;;;12.00;;
59271;SDS011;45043;51.068;7.026;2023-06-10T18:14:01;12.25;;;11.07;;
59271;SDS011;45043;51.068;7.026;2023-06-10T18:17:02;13.80;;;12.70;;
59271;SDS011;45043;51.068;7.026;2023-06-10T18:20:03;10.93;;;10.00;;